Black Butte Atmospheric Data: 07/12/2019 Summary  Detailed Graphs  Station List

  Temperature     Wind Precipitation Visibility
Timestamp Air Wet
Bulb
Dew-
point
24-hr
Max
24-hr
Min
Relative
Humidity
Atmospheric
Pressure
Avg
Speed
Avg
Dir
Spot
Speed
Spot
Dir
Max
Speed
Max
Dir
  Rate Situation Start End 1 hr 3 hr 6 hr 12 hr 24 hr   Situation
Date Time °F °F °F °F °F % in Hg mph ° mph ° mph ° Y/N in/hr text Date Time Date Time in in in in in mi text
07/12/2019 12:02 AM 66.92 57.56 50.90 87.08 53.06 56.0 Not Reported 5.82 NW 6.93 NW 6.49 NW No 0.000 No Precipitation 01/01/1970 12:00 AM 01/01/1970 12:00 AM 0.000 0.000 0.000 0.000 0.000 Not Reported Not Reported
07/12/2019 12:07 AM 68.90 58.28 50.72 87.08 53.06 52.0 Not Reported 5.37 NW 7.38 NW 6.49 NW No 0.000 No Precipitation 01/01/1970 12:00 AM 01/01/1970 12:00 AM 0.000 0.000 0.000 0.000 0.000 Not Reported Not Reported
07/12/2019 12:12 AM 69.08 58.10 50.54 87.08 53.06 51.0 Not Reported 7.38 NW 8.50 NW 8.72 W No 0.000 No Precipitation 01/01/1970 12:00 AM 01/01/1970 12:00 AM 0.000 0.000 0.000 0.000 0.000 Not Reported Not Reported
07/12/2019 12:17 AM 67.64 57.74 50.72 87.08 53.06 54.0 Not Reported 6.49 NW 6.26 W 8.72 W No 0.000 No Precipitation 01/01/1970 12:00 AM 01/01/1970 12:00 AM 0.000 0.000 0.000 0.000 0.000 Not Reported Not Reported
07/12/2019 12:22 AM 68.54 57.92 50.18 87.08 53.06 51.0 Not Reported 8.72 NW 8.50 NW 10.07 NW No 0.000 No Precipitation 01/01/1970 12:00 AM 01/01/1970 12:00 AM 0.000 0.000 0.000 0.000 0.000 Not Reported Not Reported
07/12/2019 12:27 AM 67.46 57.38 50.18 87.08 53.06 53.0 Not Reported 6.71 NW 10.07 N 10.07 NW No 0.000 No Precipitation 01/01/1970 12:00 AM 01/01/1970 12:00 AM 0.000 0.000 0.000 0.000 0.000 Not Reported Not Reported
07/12/2019 12:32 AM 67.28 57.56 50.54 87.08 53.06 54.0 Not Reported 7.38 NW 7.38 NW 10.74 NW No 0.000 No Precipitation 01/01/1970 12:00 AM 01/01/1970 12:00 AM 0.000 0.000 0.000 0.000 0.000 Not Reported Not Reported
07/12/2019 12:38 AM 67.10 57.38 50.36 87.08 53.06 55.0 Not Reported 4.47 W 5.37 NW 10.74 NW No 0.000 No Precipitation 01/01/1970 12:00 AM 01/01/1970 12:00 AM 0.000 0.000 0.000 0.000 0.000 Not Reported Not Reported
07/12/2019 12:44 AM 66.38 57.20 50.72 87.08 53.06 57.0 Not Reported 4.70 W 5.82 W 8.05 W No 0.000 No Precipitation 01/01/1970 12:00 AM 01/01/1970 12:00 AM 0.000 0.000 0.000 0.000 0.000 Not Reported Not Reported
07/12/2019 12:47 AM 65.30 57.02 51.08 87.08 53.06 60.0 Not Reported 4.47 W 5.37 NW 8.05 W No 0.000 No Precipitation 01/01/1970 12:00 AM 01/01/1970 12:00 AM 0.000 0.000 0.000 0.000 0.000 Not Reported Not Reported
07/12/2019 12:52 AM 64.76 56.84 50.90 87.08 53.06 60.0 Not Reported 3.80 W 3.80 SW 6.04 W No 0.000 No Precipitation 01/01/1970 12:00 AM 01/01/1970 12:00 AM 0.000 0.000 0.000 0.000 0.000 Not Reported Not Reported
07/12/2019 12:57 AM 64.04 56.48 51.08 87.08 53.06 62.0 Not Reported 3.80 SW 5.14 W 6.04 W No 0.000 No Precipitation 01/01/1970 12:00 AM 01/01/1970 12:00 AM 0.000 0.000 0.000 0.000 0.000 Not Reported Not Reported
07/12/2019 01:02 AM 63.68 56.30 51.08 87.08 53.06 63.0 Not Reported 3.58 W 4.92 W 5.14 W No 0.000 No Precipitation 01/01/1970 12:00 AM 01/01/1970 12:00 AM 0.000 0.000 0.000 0.000 0.000 Not Reported Not Reported
07/12/2019 01:07 AM 63.86 56.30 50.72 87.08 53.06 62.0 Not Reported 4.25 W 6.49 W 5.14 W No 0.000 No Precipitation 01/01/1970 12:00 AM 01/01/1970 12:00 AM 0.000 0.000 0.000 0.000 0.000 Not Reported Not Reported
07/12/2019 01:12 AM 63.32 56.12 51.08 87.08 53.06 64.0 Not Reported 3.58 W 4.03 W 6.49 W No 0.000 No Precipitation 01/01/1970 12:00 AM 01/01/1970 12:00 AM 0.000 0.000 0.000 0.000 0.000 Not Reported Not Reported
07/12/2019 01:17 AM 63.50 56.12 50.90 87.08 53.06 63.0 Not Reported 4.47 W 4.70 NW 6.49 W No 0.000 No Precipitation 01/01/1970 12:00 AM 01/01/1970 12:00 AM 0.000 0.000 0.000 0.000 0.000 Not Reported Not Reported
07/12/2019 01:22 AM 63.50 56.12 50.90 87.08 53.06 63.0 Not Reported 3.80 W 3.36 W 6.49 N No 0.000 No Precipitation 01/01/1970 12:00 AM 01/01/1970 12:00 AM 0.000 0.000 0.000 0.000 0.000 Not Reported Not Reported
07/12/2019 01:27 AM 62.96 55.94 50.54 87.08 53.06 63.0 Not Reported 4.03 NW 5.37 W 6.49 N No 0.000 No Precipitation 01/01/1970 12:00 AM 01/01/1970 12:00 AM 0.000 0.000 0.000 0.000 0.000 Not Reported Not Reported
07/12/2019 01:32 AM 62.78 55.76 50.54 87.08 53.06 63.0 Not Reported 4.47 W 4.92 W 5.37 W No 0.000 No Precipitation 01/01/1970 12:00 AM 01/01/1970 12:00 AM 0.000 0.000 0.000 0.000 0.000 Not Reported Not Reported
07/12/2019 01:37 AM 63.14 55.94 50.54 87.08 53.06 63.0 Not Reported 4.92 NW 3.58 W 5.37 W No 0.000 No Precipitation 01/01/1970 12:00 AM 01/01/1970 12:00 AM 0.000 0.000 0.000 0.000 0.000 Not Reported Not Reported
07/12/2019 01:42 AM 63.68 55.94 50.36 87.08 53.06 61.0 Not Reported 5.82 W 4.70 W 6.26 W No 0.000 No Precipitation 01/01/1970 12:00 AM 01/01/1970 12:00 AM 0.000 0.000 0.000 0.000 0.000 Not Reported Not Reported
07/12/2019 01:47 AM 64.22 56.30 50.36 87.08 53.06 60.0 Not Reported 5.37 NW 4.47 NW 6.26 W No 0.000 No Precipitation 01/01/1970 12:00 AM 01/01/1970 12:00 AM 0.000 0.000 0.000 0.000 0.000 Not Reported Not Reported
07/12/2019 01:52 AM 63.50 55.94 50.18 87.08 53.06 61.0 Not Reported 5.82 W 5.82 W 8.05 W No 0.000 No Precipitation 01/01/1970 12:00 AM 01/01/1970 12:00 AM 0.000 0.000 0.000 0.000 0.000 Not Reported Not Reported
07/12/2019 01:57 AM 63.86 56.12 50.36 87.08 53.06 61.0 Not Reported 5.59 W 4.92 W 8.05 W No 0.000 No Precipitation 01/01/1970 12:00 AM 01/01/1970 12:00 AM 0.000 0.000 0.000 0.000 0.000 Not Reported Not Reported
07/12/2019 02:03 AM 63.86 55.94 50.18 87.08 53.06 60.0 Not Reported 5.37 W 6.93 W 7.38 NW No 0.000 No Precipitation 01/01/1970 12:00 AM 01/01/1970 12:00 AM 0.000 0.000 0.000 0.000 0.000 Not Reported Not Reported
07/12/2019 02:07 AM 63.50 55.94 50.18 87.08 53.06 61.0 Not Reported 5.14 W 3.58 W 7.38 NW No 0.000 No Precipitation 01/01/1970 12:00 AM 01/01/1970 12:00 AM 0.000 0.000 0.000 0.000 0.000 Not Reported Not Reported
07/12/2019 02:12 AM 63.32 55.76 50.00 87.08 53.06 61.0 Not Reported 5.14 W 4.70 W 6.93 W No 0.000 No Precipitation 01/01/1970 12:00 AM 01/01/1970 12:00 AM 0.000 0.000 0.000 0.000 0.000 Not Reported Not Reported
07/12/2019 02:18 AM 62.96 55.58 50.00 87.08 53.06 62.0 Not Reported 4.03 W 3.80 W 6.93 W No 0.000 No Precipitation 01/01/1970 12:00 AM 01/01/1970 12:00 AM 0.000 0.000 0.000 0.000 0.000 Not Reported Not Reported
07/12/2019 02:22 AM 63.32 55.76 50.00 87.08 53.06 61.0 Not Reported 5.37 W 4.25 NW 6.93 N No 0.000 No Precipitation 01/01/1970 12:00 AM 01/01/1970 12:00 AM 0.000 0.000 0.000 0.000 0.000 Not Reported Not Reported
07/12/2019 02:27 AM 64.22 56.12 50.00 87.08 53.06 60.0 Not Reported 5.82 W 7.38 NW 6.93 N No 0.000 No Precipitation 01/01/1970 12:00 AM 01/01/1970 12:00 AM 0.000 0.000 0.000 0.000 0.000 Not Reported Not Reported
07/12/2019 02:32 AM 63.86 55.94 50.00 87.08 53.06 60.0 Not Reported 6.04 W 4.25 W 7.38 NW No 0.000 No Precipitation 01/01/1970 12:00 AM 01/01/1970 12:00 AM 0.000 0.000 0.000 0.000 0.000 Not Reported Not Reported
07/12/2019 02:37 AM 63.50 55.76 50.00 87.08 53.06 61.0 Not Reported 4.92 W 4.47 NW 7.38 NW No 0.000 No Precipitation 01/01/1970 12:00 AM 01/01/1970 12:00 AM 0.000 0.000 0.000 0.000 0.000 Not Reported Not Reported
07/12/2019 02:42 AM 63.86 55.94 50.00 87.08 53.06 60.0 Not Reported 3.36 W 2.46 W 7.83 W No 0.000 No Precipitation 01/01/1970 12:00 AM 01/01/1970 12:00 AM 0.000 0.000 0.000 0.000 0.000 Not Reported Not Reported
07/12/2019 02:47 AM 63.14 55.58 49.82 87.08 53.06 61.0 Not Reported 3.80 W 3.80 NW 7.83 W No 0.000 No Precipitation 01/01/1970 12:00 AM 01/01/1970 12:00 AM 0.000 0.000 0.000 0.000 0.000 Not Reported Not Reported
07/12/2019 02:52 AM 62.96 55.40 49.82 87.08 53.06 62.0 Not Reported 5.14 W 7.16 W 5.37 NW No 0.000 No Precipitation 01/01/1970 12:00 AM 01/01/1970 12:00 AM 0.000 0.000 0.000 0.000 0.000 Not Reported Not Reported
07/12/2019 02:57 AM 63.50 55.76 49.82 87.08 53.06 61.0 Not Reported 4.25 W 3.36 SW 5.37 NW No 0.000 No Precipitation 01/01/1970 12:00 AM 01/01/1970 12:00 AM 0.000 0.000 0.000 0.000 0.000 Not Reported Not Reported
07/12/2019 03:02 AM 62.96 55.40 49.82 87.08 53.06 62.0 Not Reported 2.46 W 3.36 NW 7.16 W No 0.000 No Precipitation 01/01/1970 12:00 AM 01/01/1970 12:00 AM 0.000 0.000 0.000 0.000 0.000 Not Reported Not Reported
07/12/2019 03:12 AM 62.78 55.40 49.82 87.08 53.06 62.0 Not Reported 2.46 W 3.13 W 4.70 W No 0.000 No Precipitation 01/01/1970 12:00 AM 01/01/1970 12:00 AM 0.000 0.000 0.000 0.000 0.000 Not Reported Not Reported
07/12/2019 03:17 AM 62.06 55.04 49.82 87.08 53.06 64.0 Not Reported 2.24 SW 2.91 W 4.70 W No 0.000 No Precipitation 01/01/1970 12:00 AM 01/01/1970 12:00 AM 0.000 0.000 0.000 0.000 0.000 Not Reported Not Reported
07/12/2019 03:22 AM 62.24 55.22 49.82 87.08 53.06 63.0 Not Reported 2.24 W 1.12 NW 3.13 W No 0.000 No Precipitation 01/01/1970 12:00 AM 01/01/1970 12:00 AM 0.000 0.000 0.000 0.000 0.000 Not Reported Not Reported
07/12/2019 03:27 AM 61.34 54.68 49.64 87.08 53.06 65.0 Not Reported 2.01 W 1.79 W 3.13 W No 0.000 No Precipitation 01/01/1970 12:00 AM 01/01/1970 12:00 AM 0.000 0.000 0.000 0.000 0.000 Not Reported Not Reported
07/12/2019 03:32 AM 61.16 54.68 49.82 87.08 53.06 66.0 Not Reported 0.89 NW 1.12 N 3.36 W No 0.000 No Precipitation 01/01/1970 12:00 AM 01/01/1970 12:00 AM 0.000 0.000 0.000 0.000 0.000 Not Reported Not Reported
07/12/2019 03:37 AM 60.26 54.32 49.64 87.08 53.06 67.0 Not Reported 1.57 N 3.58 NW 3.36 W No 0.000 No Precipitation 01/01/1970 12:00 AM 01/01/1970 12:00 AM 0.000 0.000 0.000 0.000 0.000 Not Reported Not Reported
07/12/2019 03:42 AM 59.90 54.14 49.64 87.08 53.06 69.0 Not Reported 2.24 NW 2.91 N 3.58 NW No 0.000 No Precipitation 01/01/1970 12:00 AM 01/01/1970 12:00 AM 0.000 0.000 0.000 0.000 0.000 Not Reported Not Reported
07/12/2019 03:47 AM 59.54 53.96 49.64 87.08 53.06 69.0 Not Reported 2.46 NW 2.68 NW 3.58 NW No 0.000 No Precipitation 01/01/1970 12:00 AM 01/01/1970 12:00 AM 0.000 0.000 0.000 0.000 0.000 Not Reported Not Reported
07/12/2019 03:52 AM 59.90 54.14 49.82 87.08 53.06 68.0 Not Reported 2.01 NW 2.24 NW 2.91 N No 0.000 No Precipitation 01/01/1970 12:00 AM 01/01/1970 12:00 AM 0.000 0.000 0.000 0.000 0.000 Not Reported Not Reported
07/12/2019 03:57 AM 59.72 54.14 49.82 87.08 53.06 69.0 Not Reported 3.13 NW 3.58 W 2.91 N No 0.000 No Precipitation 01/01/1970 12:00 AM 01/01/1970 12:00 AM 0.000 0.000 0.000 0.000 0.000 Not Reported Not Reported
07/12/2019 04:02 AM 59.18 53.78 49.46 87.08 53.06 70.0 Not Reported 2.24 NW 1.57 NW 3.80 NW No 0.000 No Precipitation 01/01/1970 12:00 AM 01/01/1970 12:00 AM 0.000 0.000 0.000 0.000 0.000 Not Reported Not Reported
07/12/2019 04:07 AM 58.46 53.42 49.64 87.08 53.06 72.0 Not Reported 2.24 NW 3.36 NW 3.80 NW No 0.000 No Precipitation 01/01/1970 12:00 AM 01/01/1970 12:00 AM 0.000 0.000 0.000 0.000 0.000 Not Reported Not Reported
07/12/2019 04:12 AM 58.10 53.24 49.46 87.08 53.06 72.0 Not Reported 2.46 NW 2.46 NW 3.36 NW No 0.000 No Precipitation 01/01/1970 12:00 AM 01/01/1970 12:00 AM 0.000 0.000 0.000 0.000 0.000 Not Reported Not Reported
07/12/2019 04:17 AM 58.10 53.24 49.64 87.08 53.06 73.0 Not Reported 1.12 NW 0.00 NW 3.36 NW No 0.000 No Precipitation 01/01/1970 12:00 AM 01/01/1970 12:00 AM 0.000 0.000 0.000 0.000 0.000 Not Reported Not Reported
07/12/2019 04:22 AM 58.64 53.60 49.82 87.08 53.06 72.0 Not Reported 1.12 N 0.89 N 3.36 NW No 0.000 No Precipitation 01/01/1970 12:00 AM 01/01/1970 12:00 AM 0.000 0.000 0.000 0.000 0.000 Not Reported Not Reported
07/12/2019 04:27 AM 58.46 53.60 49.82 87.08 53.06 72.0 Not Reported 0.45 NW 1.34 NW 3.36 NW No 0.000 No Precipitation 01/01/1970 12:00 AM 01/01/1970 12:00 AM 0.000 0.000 0.000 0.000 0.000 Not Reported Not Reported
07/12/2019 04:32 AM 58.82 53.96 50.00 87.08 53.06 72.0 Not Reported 2.24 NW 1.57 N 2.91 NW No 0.000 No Precipitation 01/01/1970 12:00 AM 01/01/1970 12:00 AM 0.000 0.000 0.000 0.000 0.000 Not Reported Not Reported
07/12/2019 04:37 AM 58.46 53.60 49.64 87.08 53.06 72.0 Not Reported 0.89 NW 1.57 NW 2.91 NW No 0.000 No Precipitation 01/01/1970 12:00 AM 01/01/1970 12:00 AM 0.000 0.000 0.000 0.000 0.000 Not Reported Not Reported
07/12/2019 04:42 AM 58.46 53.60 49.82 87.08 53.06 72.0 Not Reported 2.46 NW 2.46 NW 2.91 NW No 0.000 No Precipitation 01/01/1970 12:00 AM 01/01/1970 12:00 AM 0.000 0.000 0.000 0.000 0.000 Not Reported Not Reported
07/12/2019 04:47 AM 58.10 53.24 49.28 87.08 53.06 72.0 Not Reported 1.12 NW 0.00 W 2.91 NW No 0.000 No Precipitation 01/01/1970 12:00 AM 01/01/1970 12:00 AM 0.000 0.000 0.000 0.000 0.000 Not Reported Not Reported
07/12/2019 04:52 AM 58.10 53.06 49.28 87.08 53.06 72.0 Not Reported 0.67 NW 0.22 NW 2.46 NW No 0.000 No Precipitation 01/01/1970 12:00 AM 01/01/1970 12:00 AM 0.000 0.000 0.000 0.000 0.000 Not Reported Not Reported
07/12/2019 04:57 AM 57.92 53.06 49.28 87.08 53.06 72.0 Not Reported 1.12 NW 1.57 NW 2.46 NW No 0.000 No Precipitation 01/01/1970 12:00 AM 01/01/1970 12:00 AM 0.000 0.000 0.000 0.000 0.000 Not Reported Not Reported
07/12/2019 05:02 AM 57.74 53.06 49.28 87.08 53.06 73.0 Not Reported 0.45 NW 0.67 NW 2.46 NW No 0.000 No Precipitation 01/01/1970 12:00 AM 01/01/1970 12:00 AM 0.000 0.000 0.000 0.000 0.000 Not Reported Not Reported
07/12/2019 05:07 AM 57.56 53.06 49.64 87.08 53.06 74.0 Not Reported 1.79 NW 1.34 NW 2.46 NW No 0.000 No Precipitation 01/01/1970 12:00 AM 01/01/1970 12:00 AM 0.000 0.000 0.000 0.000 0.000 Not Reported Not Reported
07/12/2019 05:12 AM 57.20 52.88 49.46 87.08 53.24 75.0 Not Reported 0.67 NW 0.67 NW 2.24 NW No 0.000 No Precipitation 01/01/1970 12:00 AM 01/01/1970 12:00 AM 0.000 0.000 0.000 0.000 0.000 Not Reported Not Reported
07/12/2019 05:17 AM 56.66 52.70 49.46 87.08 53.24 76.0 Not Reported 0.45 NW 0.45 SW 2.24 NW No 0.000 No Precipitation 01/01/1970 12:00 AM 01/01/1970 12:00 AM 0.000 0.000 0.000 0.000 0.000 Not Reported Not Reported
07/12/2019 05:23 AM 56.48 52.70 49.64 87.08 53.24 78.0 Not Reported 1.34 W 2.01 W 1.57 W No 0.000 No Precipitation 01/01/1970 12:00 AM 01/01/1970 12:00 AM 0.000 0.000 0.000 0.000 0.000 Not Reported Not Reported
07/12/2019 05:27 AM 56.66 52.52 49.46 87.08 53.24 76.0 Not Reported 1.12 W 1.79 NW 1.57 W No 0.000 No Precipitation 01/01/1970 12:00 AM 01/01/1970 12:00 AM 0.000 0.000 0.000 0.000 0.000 Not Reported Not Reported
07/12/2019 05:33 AM 56.48 52.70 49.64 87.08 53.24 77.0 Not Reported 1.34 NW 1.57 NW 2.46 NW No 0.000 No Precipitation 01/01/1970 12:00 AM 01/01/1970 12:00 AM 0.000 0.000 0.000 0.000 0.000 Not Reported Not Reported
07/12/2019 05:37 AM 56.30 52.70 49.82 87.08 53.60 78.0 Not Reported 0.67 W 1.57 W 2.46 NW No 0.000 No Precipitation 01/01/1970 12:00 AM 01/01/1970 12:00 AM 0.000 0.000 0.000 0.000 0.000 Not Reported Not Reported
07/12/2019 05:42 AM 56.12 52.52 49.64 87.08 53.78 78.0 Not Reported 1.12 NW 1.34 NW 1.79 W No 0.000 No Precipitation 01/01/1970 12:00 AM 01/01/1970 12:00 AM 0.000 0.000 0.000 0.000 0.000 Not Reported Not Reported
07/12/2019 05:47 AM 55.94 52.34 49.46 87.08 53.78 78.0 Not Reported 0.89 NW 0.67 W 1.79 W No 0.000 No Precipitation 01/01/1970 12:00 AM 01/01/1970 12:00 AM 0.000 0.000 0.000 0.000 0.000 Not Reported Not Reported
07/12/2019 05:52 AM 55.94 52.34 49.46 87.08 53.96 78.0 Not Reported 0.89 NW 1.79 NW 1.79 NW No 0.000 No Precipitation 01/01/1970 12:00 AM 01/01/1970 12:00 AM 0.000 0.000 0.000 0.000 0.000 Not Reported Not Reported
07/12/2019 05:57 AM 55.58 51.98 49.10 87.08 53.96 78.0 Not Reported 1.12 NW 0.67 N 1.79 NW No 0.000 No Precipitation 01/01/1970 12:00 AM 01/01/1970 12:00 AM 0.000 0.000 0.000 0.000 0.000 Not Reported Not Reported
07/12/2019 06:02 AM 55.58 52.16 49.28 87.08 54.32 79.0 Not Reported 1.34 NW 0.89 NW 1.79 NW No 0.000 No Precipitation 01/01/1970 12:00 AM 01/01/1970 12:00 AM 0.000 0.000 0.000 0.000 0.000 Not Reported Not Reported
07/12/2019 06:07 AM 55.58 52.16 49.28 87.08 54.32 78.0 Not Reported 0.45 NW 1.12 NW 1.79 NW No 0.000 No Precipitation 01/01/1970 12:00 AM 01/01/1970 12:00 AM 0.000 0.000 0.000 0.000 0.000 Not Reported Not Reported
07/12/2019 06:12 AM 55.76 52.16 49.28 87.08 54.50 78.0 Not Reported 0.22 NW 0.00 NW 1.57 NW No 0.000 No Precipitation 01/01/1970 12:00 AM 01/01/1970 12:00 AM 0.000 0.000 0.000 0.000 0.000 Not Reported Not Reported
07/12/2019 06:17 AM 55.40 51.80 48.92 87.08 54.68 78.0 Not Reported 0.45 NW 0.00 NW 1.57 NW No 0.000 No Precipitation 01/01/1970 12:00 AM 01/01/1970 12:00 AM 0.000 0.000 0.000 0.000 0.000 Not Reported Not Reported
07/12/2019 06:22 AM 55.58 52.16 49.28 87.08 55.22 79.0 Not Reported 0.45 NW 0.45 NW 1.12 NW No 0.000 No Precipitation 01/01/1970 12:00 AM 01/01/1970 12:00 AM 0.000 0.000 0.000 0.000 0.000 Not Reported Not Reported
07/12/2019 06:27 AM 55.58 51.98 49.10 87.08 55.40 79.0 Not Reported 0.00 N 0.00 NW 1.12 NW No 0.000 No Precipitation 01/01/1970 12:00 AM 01/01/1970 12:00 AM 0.000 0.000 0.000 0.000 0.000 Not Reported Not Reported
07/12/2019 06:32 AM 55.40 51.98 49.10 87.08 55.40 79.0 Not Reported 0.67 NW 0.67 NW 0.89 W No 0.000 No Precipitation 01/01/1970 12:00 AM 01/01/1970 12:00 AM 0.000 0.000 0.000 0.000 0.000 Not Reported Not Reported
07/12/2019 06:38 AM 55.58 51.98 49.10 87.08 55.40 79.0 Not Reported 0.00 NW 0.00 NW 0.89 W No 0.000 No Precipitation 01/01/1970 12:00 AM 01/01/1970 12:00 AM 0.000 0.000 0.000 0.000 0.000 Not Reported Not Reported
07/12/2019 06:42 AM 55.22 51.80 49.28 87.08 55.22 79.0 Not Reported 1.34 NW 1.57 NW 2.24 NW No 0.000 No Precipitation 01/01/1970 12:00 AM 01/01/1970 12:00 AM 0.000 0.000 0.000 0.000 0.000 Not Reported Not Reported
07/12/2019 06:47 AM 55.22 51.98 49.46 87.08 55.04 80.0 Not Reported 1.12 NW 0.89 NW 2.24 NW No 0.000 No Precipitation 01/01/1970 12:00 AM 01/01/1970 12:00 AM 0.000 0.000 0.000 0.000 0.000 Not Reported Not Reported
07/12/2019 06:52 AM 55.22 51.80 49.28 87.08 55.04 80.0 Not Reported 0.22 NE 0.00 NW 1.79 N No 0.000 No Precipitation 01/01/1970 12:00 AM 01/01/1970 12:00 AM 0.000 0.000 0.000 0.000 0.000 Not Reported Not Reported
07/12/2019 06:57 AM 55.04 51.98 49.46 87.08 55.04 81.0 Not Reported 0.00 N 0.00 NW 1.79 N No 0.000 No Precipitation 01/01/1970 12:00 AM 01/01/1970 12:00 AM 0.000 0.000 0.000 0.000 0.000 Not Reported Not Reported
07/12/2019 07:02 AM 55.04 51.98 49.46 87.08 55.04 81.0 Not Reported 0.45 N 1.34 NW 1.34 NW No 0.000 No Precipitation 01/01/1970 12:00 AM 01/01/1970 12:00 AM 0.000 0.000 0.000 0.000 0.000 Not Reported Not Reported
07/12/2019 07:07 AM 55.04 51.80 49.28 87.08 54.86 81.0 Not Reported 0.67 NW 0.00 NW 1.34 NW No 0.000 No Precipitation 01/01/1970 12:00 AM 01/01/1970 12:00 AM 0.000 0.000 0.000 0.000 0.000 Not Reported Not Reported
07/12/2019 07:12 AM 55.22 52.16 49.64 87.08 54.86 81.0 Not Reported 0.45 NW 0.00 NW 1.34 NW No 0.000 No Precipitation 01/01/1970 12:00 AM 01/01/1970 12:00 AM 0.000 0.000 0.000 0.000 0.000 Not Reported Not Reported
07/12/2019 07:17 AM 55.22 52.16 49.82 87.08 54.86 82.0 Not Reported 0.00 N 0.00 E 1.34 NW No 0.000 No Precipitation 01/01/1970 12:00 AM 01/01/1970 12:00 AM 0.000 0.000 0.000 0.000 0.000 Not Reported Not Reported
07/12/2019 07:22 AM 55.58 52.52 50.18 87.08 54.86 81.0 Not Reported 0.00 N 0.00 E 1.12 NW No 0.000 No Precipitation 01/01/1970 12:00 AM 01/01/1970 12:00 AM 0.000 0.000 0.000 0.000 0.000 Not Reported Not Reported
07/12/2019 07:27 AM 55.94 52.70 50.18 87.08 54.86 80.0 Not Reported 0.00 E 0.00 NE 1.12 NW No 0.000 No Precipitation 01/01/1970 12:00 AM 01/01/1970 12:00 AM 0.000 0.000 0.000 0.000 0.000 Not Reported Not Reported
07/12/2019 07:33 AM 55.94 52.70 50.00 87.08 54.86 80.0 Not Reported 0.00 N 0.00 SE 0.00 E No 0.000 No Precipitation 01/01/1970 12:00 AM 01/01/1970 12:00 AM 0.000 0.000 0.000 0.000 0.000 Not Reported Not Reported
07/12/2019 07:37 AM 55.94 52.70 50.18 87.08 54.86 81.0 Not Reported 0.00 NW 0.67 NW 0.00 E No 0.000 No Precipitation 01/01/1970 12:00 AM 01/01/1970 12:00 AM 0.000 0.000 0.000 0.000 0.000 Not Reported Not Reported
07/12/2019 07:42 AM 55.40 52.52 50.36 87.08 54.86 83.0 Not Reported 1.34 W 1.79 W 0.89 NW No 0.000 No Precipitation 01/01/1970 12:00 AM 01/01/1970 12:00 AM 0.000 0.000 0.000 0.000 0.000 Not Reported Not Reported
07/12/2019 07:47 AM 55.22 52.34 50.36 87.08 54.86 83.0 Not Reported 0.67 NW 0.00 NW 0.89 NW No 0.000 No Precipitation 01/01/1970 12:00 AM 01/01/1970 12:00 AM 0.000 0.000 0.000 0.000 0.000 Not Reported Not Reported
07/12/2019 07:52 AM 55.22 52.34 50.18 87.08 54.86 82.0 Not Reported 3.13 NW 3.13 NW 2.24 NW No 0.000 No Precipitation 01/01/1970 12:00 AM 01/01/1970 12:00 AM 0.000 0.000 0.000 0.000 0.000 Not Reported Not Reported
07/12/2019 07:57 AM 56.66 53.24 50.54 87.08 54.86 79.0 Not Reported 2.01 NW 1.79 NW 2.24 NW No 0.000 No Precipitation 01/01/1970 12:00 AM 01/01/1970 12:00 AM 0.000 0.000 0.000 0.000 0.000 Not Reported Not Reported
07/12/2019 08:02 AM 57.74 53.60 50.54 87.08 54.86 77.0 Not Reported 1.34 NW 0.89 W 3.36 NW No 0.000 No Precipitation 01/01/1970 12:00 AM 01/01/1970 12:00 AM 0.000 0.000 0.000 0.000 0.000 Not Reported Not Reported
07/12/2019 08:07 AM 58.64 53.96 50.36 87.08 54.86 74.0 Not Reported 2.01 NW 3.13 NW 3.36 NW No 0.000 No Precipitation 01/01/1970 12:00 AM 01/01/1970 12:00 AM 0.000 0.000 0.000 0.000 0.000 Not Reported Not Reported
07/12/2019 08:12 AM 59.54 54.68 50.90 87.08 54.86 72.0 Not Reported 2.01 NW 2.24 NW 3.36 NW No 0.000 No Precipitation 01/01/1970 12:00 AM 01/01/1970 12:00 AM 0.000 0.000 0.000 0.000 0.000 Not Reported Not Reported
07/12/2019 08:17 AM 61.34 55.58 51.62 87.08 54.86 70.0 Not Reported 1.34 NW 0.67 NW 3.36 NW No 0.000 No Precipitation 01/01/1970 12:00 AM 01/01/1970 12:00 AM 0.000 0.000 0.000 0.000 0.000 Not Reported Not Reported
07/12/2019 08:22 AM 62.42 56.12 51.62 87.08 54.86 67.0 Not Reported 1.57 NW 1.34 NW 2.46 NW No 0.000 No Precipitation 01/01/1970 12:00 AM 01/01/1970 12:00 AM 0.000 0.000 0.000 0.000 0.000 Not Reported Not Reported
07/12/2019 08:27 AM 62.78 56.30 51.62 87.08 54.86 66.0 Not Reported 1.34 NW 1.79 NW 2.46 NW No 0.000 No Precipitation 01/01/1970 12:00 AM 01/01/1970 12:00 AM 0.000 0.000 0.000 0.000 0.000 Not Reported Not Reported
07/12/2019 08:32 AM 63.14 56.66 51.98 87.08 54.86 66.0 Not Reported 0.22 W 0.45 NW 2.01 NW No 0.000 No Precipitation 01/01/1970 12:00 AM 01/01/1970 12:00 AM 0.000 0.000 0.000 0.000 0.000 Not Reported Not Reported
07/12/2019 08:37 AM 63.14 56.48 51.62 87.08 54.86 66.0 Not Reported 2.68 NW 2.46 NW 2.01 NW No 0.000 No Precipitation 01/01/1970 12:00 AM 01/01/1970 12:00 AM 0.000 0.000 0.000 0.000 0.000 Not Reported Not Reported
07/12/2019 08:42 AM 63.68 56.84 52.16 87.08 54.86 65.0 Not Reported 2.68 NW 3.36 NW 4.47 NW No 0.000 No Precipitation 01/01/1970 12:00 AM 01/01/1970 12:00 AM 0.000 0.000 0.000 0.000 0.000 Not Reported Not Reported
07/12/2019 08:47 AM 63.86 57.02 52.16 87.08 54.86 65.0 Not Reported 2.68 NW 3.13 NW 4.47 NW No 0.000 No Precipitation 01/01/1970 12:00 AM 01/01/1970 12:00 AM 0.000 0.000 0.000 0.000 0.000 Not Reported Not Reported
07/12/2019 08:52 AM 64.76 57.56 52.52 87.08 54.86 64.0 Not Reported 2.46 NW 2.68 NW 4.70 NW No 0.000 No Precipitation 01/01/1970 12:00 AM 01/01/1970 12:00 AM 0.000 0.000 0.000 0.000 0.000 Not Reported Not Reported
07/12/2019 08:57 AM 65.48 57.74 52.52 87.08 54.86 62.0 Not Reported 2.68 NW 1.79 N 4.70 NW No 0.000 No Precipitation 01/01/1970 12:00 AM 01/01/1970 12:00 AM 0.000 0.000 0.000 0.000 0.000 Not Reported Not Reported
07/12/2019 09:02 AM 65.84 57.74 52.16 87.08 54.86 61.0 Not Reported 3.13 NW 3.13 NW 3.80 NW No 0.000 No Precipitation 01/01/1970 12:00 AM 01/01/1970 12:00 AM 0.000 0.000 0.000 0.000 0.000 Not Reported Not Reported
07/12/2019 09:07 AM 65.84 57.92 52.16 87.08 54.86 61.0 Not Reported 4.25 NW 3.36 NW 3.80 NW No 0.000 No Precipitation 01/01/1970 12:00 AM 01/01/1970 12:00 AM 0.000 0.000 0.000 0.000 0.000 Not Reported Not Reported
07/12/2019 09:12 AM 67.10 58.46 52.52 87.08 54.86 59.0 Not Reported 2.91 N 2.01 N 5.14 NW No 0.000 No Precipitation 01/01/1970 12:00 AM 01/01/1970 12:00 AM 0.000 0.000 0.000 0.000 0.000 Not Reported Not Reported
07/12/2019 09:22 AM 67.64 58.46 52.16 87.08 54.86 57.0 Not Reported 2.46 NW 2.01 NW 4.70 NW No 0.000 No Precipitation 01/01/1970 12:00 AM 01/01/1970 12:00 AM 0.000 0.000 0.000 0.000 0.000 Not Reported Not Reported
07/12/2019 09:27 AM 69.08 59.18 52.34 87.08 54.86 55.0 Not Reported 1.57 N 1.12 NW 4.70 NW No 0.000 No Precipitation 01/01/1970 12:00 AM 01/01/1970 12:00 AM 0.000 0.000 0.000 0.000 0.000 Not Reported Not Reported
07/12/2019 09:32 AM 69.44 59.54 52.70 87.08 54.86 55.0 Not Reported 2.24 NW 2.91 N 2.91 NW No 0.000 No Precipitation 01/01/1970 12:00 AM 01/01/1970 12:00 AM 0.000 0.000 0.000 0.000 0.000 Not Reported Not Reported
07/12/2019 09:37 AM 69.80 59.54 52.70 87.08 54.86 54.0 Not Reported 2.91 NW 2.01 N 2.91 NW No 0.000 No Precipitation 01/01/1970 12:00 AM 01/01/1970 12:00 AM 0.000 0.000 0.000 0.000 0.000 Not Reported Not Reported
07/12/2019 09:43 AM 70.88 59.90 53.06 87.08 54.86 53.0 Not Reported 2.24 NW 1.79 NW 3.58 NW No 0.000 No Precipitation 01/01/1970 12:00 AM 01/01/1970 12:00 AM 0.000 0.000 0.000 0.000 0.000 Not Reported Not Reported
07/12/2019 09:47 AM 70.88 59.90 52.70 87.08 54.86 52.0 Not Reported 0.67 SW 0.00 W 3.58 NW No 0.000 No Precipitation 01/01/1970 12:00 AM 01/01/1970 12:00 AM 0.000 0.000 0.000 0.000 0.000 Not Reported Not Reported
07/12/2019 09:52 AM 71.06 60.08 52.52 87.08 54.86 51.0 Not Reported 2.46 N 2.24 N 2.68 NW No 0.000 No Precipitation 01/01/1970 12:00 AM 01/01/1970 12:00 AM 0.000 0.000 0.000 0.000 0.000 Not Reported Not Reported
07/12/2019 09:57 AM 70.34 59.72 52.52 87.08 54.86 53.0 Not Reported 1.34 W 0.89 W 2.68 NW No 0.000 No Precipitation 01/01/1970 12:00 AM 01/01/1970 12:00 AM 0.000 0.000 0.000 0.000 0.000 Not Reported Not Reported
07/12/2019 10:02 AM 71.78 60.26 52.70 87.08 54.86 50.0 Not Reported 0.67 W 0.00 W 3.13 NW No 0.000 No Precipitation 01/01/1970 12:00 AM 01/01/1970 12:00 AM 0.000 0.000 0.000 0.000 0.000 Not Reported Not Reported
07/12/2019 10:07 AM 73.58 60.98 52.52 87.08 54.86 47.0 Not Reported 0.89 N 1.57 NE 3.13 NW No 0.000 No Precipitation 01/01/1970 12:00 AM 01/01/1970 12:00 AM 0.000 0.000 0.000 0.000 0.000 Not Reported Not Reported
07/12/2019 10:12 AM 73.22 60.62 52.16 87.08 54.86 47.0 Not Reported 1.34 NE 1.57 NE 2.01 NE No 0.000 No Precipitation 01/01/1970 12:00 AM 01/01/1970 12:00 AM 0.000 0.000 0.000 0.000 0.000 Not Reported Not Reported
07/12/2019 10:17 AM 74.66 61.52 53.06 87.08 54.86 46.0 Not Reported 1.57 N 1.79 NW 2.01 NE No 0.000 No Precipitation 01/01/1970 12:00 AM 01/01/1970 12:00 AM 0.000 0.000 0.000 0.000 0.000 Not Reported Not Reported
07/12/2019 10:22 AM 74.48 60.62 51.44 87.08 54.86 44.0 Not Reported 1.34 E 2.01 E 2.46 N No 0.000 No Precipitation 01/01/1970 12:00 AM 01/01/1970 12:00 AM 0.000 0.000 0.000 0.000 0.000 Not Reported Not Reported
07/12/2019 10:27 AM 75.56 60.98 51.08 87.08 54.86 42.0 Not Reported 0.67 SE 1.79 NE 2.46 N No 0.000 No Precipitation 01/01/1970 12:00 AM 01/01/1970 12:00 AM 0.000 0.000 0.000 0.000 0.000 Not Reported Not Reported
07/12/2019 10:37 AM 75.20 61.34 52.16 87.08 54.86 44.0 Not Reported 1.79 SW 0.67 SE 3.58 E No 0.000 No Precipitation 01/01/1970 12:00 AM 01/01/1970 12:00 AM 0.000 0.000 0.000 0.000 0.000 Not Reported Not Reported
07/12/2019 10:42 AM 75.56 61.70 52.52 87.08 54.86 44.0 Not Reported 2.01 SE 0.22 S 2.68 W No 0.000 No Precipitation 01/01/1970 12:00 AM 01/01/1970 12:00 AM 0.000 0.000 0.000 0.000 0.000 Not Reported Not Reported
07/12/2019 10:47 AM 76.82 61.88 51.98 87.08 54.86 41.0 Not Reported 0.67 E 1.12 S 2.68 W No 0.000 No Precipitation 01/01/1970 12:00 AM 01/01/1970 12:00 AM 0.000 0.000 0.000 0.000 0.000 Not Reported Not Reported
07/12/2019 10:52 AM 77.54 62.24 52.16 87.08 54.86 41.0 Not Reported 0.67 SE 0.67 E 3.13 SE No 0.000 No Precipitation 01/01/1970 12:00 AM 01/01/1970 12:00 AM 0.000 0.000 0.000 0.000 0.000 Not Reported Not Reported
07/12/2019 10:57 AM 77.54 62.24 52.34 87.08 54.86 41.0 Not Reported 1.57 SE 2.46 E 3.13 SE No 0.000 No Precipitation 01/01/1970 12:00 AM 01/01/1970 12:00 AM 0.000 0.000 0.000 0.000 0.000 Not Reported Not Reported
07/12/2019 11:02 AM 77.90 62.42 52.34 87.08 54.86 41.0 Not Reported 2.46 E 1.57 E 4.92 E No 0.000 No Precipitation 01/01/1970 12:00 AM 01/01/1970 12:00 AM 0.000 0.000 0.000 0.000 0.000 Not Reported Not Reported
07/12/2019 11:08 AM 78.08 62.06 51.98 87.08 54.86 41.0 Not Reported 3.13 E 5.14 E 4.92 E No 0.000 No Precipitation 01/01/1970 12:00 AM 01/01/1970 12:00 AM 0.000 0.000 0.000 0.000 0.000 Not Reported Not Reported
07/12/2019 11:12 AM 77.36 62.24 52.34 87.08 54.86 41.0 Not Reported 6.71 E 7.38 SE 7.61 E No 0.000 No Precipitation 01/01/1970 12:00 AM 01/01/1970 12:00 AM 0.000 0.000 0.000 0.000 0.000 Not Reported Not Reported
07/12/2019 11:17 AM 78.62 62.78 52.70 87.08 54.86 40.0 Not Reported 1.79 SE 3.80 E 7.61 E No 0.000 No Precipitation 01/01/1970 12:00 AM 01/01/1970 12:00 AM 0.000 0.000 0.000 0.000 0.000 Not Reported Not Reported
07/12/2019 11:22 AM 77.90 62.96 53.42 87.08 54.86 42.0 Not Reported 4.92 E 2.24 NE 10.07 E No 0.000 No Precipitation 01/01/1970 12:00 AM 01/01/1970 12:00 AM 0.000 0.000 0.000 0.000 0.000 Not Reported Not Reported
07/12/2019 11:27 AM 78.98 62.60 52.16 87.08 54.86 39.0 Not Reported 6.26 E 0.22 NE 10.07 E No 0.000 No Precipitation 01/01/1970 12:00 AM 01/01/1970 12:00 AM 0.000 0.000 0.000 0.000 0.000 Not Reported Not Reported
07/12/2019 11:32 AM 79.16 62.78 52.34 87.08 54.86 39.0 Not Reported 8.28 SE 6.71 SE 8.28 E No 0.000 No Precipitation 01/01/1970 12:00 AM 01/01/1970 12:00 AM 0.000 0.000 0.000 0.000 0.000 Not Reported Not Reported
07/12/2019 11:37 AM 80.06 62.42 50.72 87.08 54.86 35.0 Not Reported 4.47 SE 4.92 SE 8.28 E No 0.000 No Precipitation 01/01/1970 12:00 AM 01/01/1970 12:00 AM 0.000 0.000 0.000 0.000 0.000 Not Reported Not Reported
07/12/2019 11:42 AM 80.42 63.14 51.98 87.08 54.86 37.0 Not Reported 3.58 E 4.25 E 10.74 SE No 0.000 No Precipitation 01/01/1970 12:00 AM 01/01/1970 12:00 AM 0.000 0.000 0.000 0.000 0.000 Not Reported Not Reported
07/12/2019 11:47 AM 81.32 63.50 51.98 87.08 54.86 36.0 Not Reported 2.68 E 6.71 SE 10.74 SE No 0.000 No Precipitation 01/01/1970 12:00 AM 01/01/1970 12:00 AM 0.000 0.000 0.000 0.000 0.000 Not Reported Not Reported
07/12/2019 11:52 AM 80.24 62.96 51.62 87.08 54.86 37.0 Not Reported 6.04 E 3.58 SE 8.28 SE No 0.000 No Precipitation 01/01/1970 12:00 AM 01/01/1970 12:00 AM 0.000 0.000 0.000 0.000 0.000 Not Reported Not Reported
07/12/2019 11:57 AM 81.32 63.32 51.80 87.08 54.86 36.0 Not Reported 2.68 S 0.89 NE 8.28 SE No 0.000 No Precipitation 01/01/1970 12:00 AM 01/01/1970 12:00 AM 0.000 0.000 0.000 0.000 0.000 Not Reported Not Reported
07/12/2019 12:03 PM 81.86 62.96 50.54 87.08 54.86 33.0 Not Reported 3.80 SE 11.86 E 7.83 E No 0.000 No Precipitation 01/01/1970 12:00 AM 01/01/1970 12:00 AM 0.000 0.000 0.000 0.000 0.000 Not Reported Not Reported
07/12/2019 12:07 PM 80.96 62.60 50.36 87.08 54.86 34.0 Not Reported 7.83 SE 8.95 E 7.83 E No 0.000 No Precipitation 01/01/1970 12:00 AM 01/01/1970 12:00 AM 0.000 0.000 0.000 0.000 0.000 Not Reported Not Reported
07/12/2019 12:12 PM 80.60 62.42 50.36 87.08 54.86 34.0 Not Reported 9.62 E 8.95 E 11.86 E No 0.000 No Precipitation 01/01/1970 12:00 AM 01/01/1970 12:00 AM 0.000 0.000 0.000 0.000 0.000 Not Reported Not Reported
07/12/2019 12:17 PM 80.78 62.60 50.54 87.08 54.86 34.0 Not Reported 4.03 SE 2.91 SE 11.86 E No 0.000 No Precipitation 01/01/1970 12:00 AM 01/01/1970 12:00 AM 0.000 0.000 0.000 0.000 0.000 Not Reported Not Reported
07/12/2019 12:22 PM 82.04 63.32 51.26 87.08 54.86 34.0 Not Reported 5.37 E 6.93 NE 11.63 E No 0.000 No Precipitation 01/01/1970 12:00 AM 01/01/1970 12:00 AM 0.000 0.000 0.000 0.000 0.000 Not Reported Not Reported
07/12/2019 12:27 PM 82.04 63.14 50.54 87.08 54.86 33.0 Not Reported 7.16 SE 6.26 E 11.63 E No 0.000 No Precipitation 01/01/1970 12:00 AM 01/01/1970 12:00 AM 0.000 0.000 0.000 0.000 0.000 Not Reported Not Reported
07/12/2019 12:32 PM 82.94 63.32 50.54 87.08 54.86 32.0 Not Reported 4.03 SE 2.01 E 10.07 E No 0.000 No Precipitation 01/01/1970 12:00 AM 01/01/1970 12:00 AM 0.000 0.000 0.000 0.000 0.000 Not Reported Not Reported
07/12/2019 12:37 PM 83.30 63.68 51.08 87.08 54.86 32.0 Not Reported 1.34 W 5.59 E 10.07 E No 0.000 No Precipitation 01/01/1970 12:00 AM 01/01/1970 12:00 AM 0.000 0.000 0.000 0.000 0.000 Not Reported Not Reported
07/12/2019 12:42 PM 82.76 63.50 51.26 87.08 54.86 33.0 Not Reported 5.82 SE 2.91 SE 12.08 E No 0.000 No Precipitation 01/01/1970 12:00 AM 01/01/1970 12:00 AM 0.000 0.000 0.000 0.000 0.000 Not Reported Not Reported
07/12/2019 12:47 PM 82.22 63.14 50.72 87.08 54.86 33.0 Not Reported 10.74 E 7.83 SE 12.08 E No 0.000 No Precipitation 01/01/1970 12:00 AM 01/01/1970 12:00 AM 0.000 0.000 0.000 0.000 0.000 Not Reported Not Reported
07/12/2019 12:52 PM 80.78 62.96 51.08 87.08 54.86 35.0 Not Reported 10.07 SE 11.86 SE 12.30 SE No 0.000 No Precipitation 01/01/1970 12:00 AM 01/01/1970 12:00 AM 0.000 0.000 0.000 0.000 0.000 Not Reported Not Reported
07/12/2019 01:02 PM 83.12 63.68 51.08 87.08 54.86 32.0 Not Reported 4.25 SE 1.79 SE 12.08 SE No 0.000 No Precipitation 01/01/1970 12:00 AM 01/01/1970 12:00 AM 0.000 0.000 0.000 0.000 0.000 Not Reported Not Reported
07/12/2019 01:07 PM 83.66 64.04 51.44 87.08 54.86 32.0 Not Reported 4.92 E 7.38 SE 12.08 SE No 0.000 No Precipitation 01/01/1970 12:00 AM 01/01/1970 12:00 AM 0.000 0.000 0.000 0.000 0.000 Not Reported Not Reported
07/12/2019 01:13 PM 82.40 63.50 51.44 87.08 54.86 34.0 Not Reported 6.71 E 5.59 NE 13.20 SE No 0.000 No Precipitation 01/01/1970 12:00 AM 01/01/1970 12:00 AM 0.000 0.000 0.000 0.000 0.000 Not Reported Not Reported
07/12/2019 01:18 PM 85.10 63.86 50.36 87.08 54.86 31.0 Not Reported 3.58 S 5.14 S 13.20 SE No 0.000 No Precipitation 01/01/1970 12:00 AM 01/01/1970 12:00 AM 0.000 0.000 0.000 0.000 0.000 Not Reported Not Reported
07/12/2019 01:22 PM 82.58 63.68 51.44 87.08 54.86 33.0 Not Reported 5.59 E 4.03 E 10.74 E No 0.000 No Precipitation 01/01/1970 12:00 AM 01/01/1970 12:00 AM 0.000 0.000 0.000 0.000 0.000 Not Reported Not Reported
07/12/2019 01:27 PM 84.92 64.22 50.90 87.08 54.86 31.0 Not Reported 4.92 S 2.91 SE 10.74 E No 0.000 No Precipitation 01/01/1970 12:00 AM 01/01/1970 12:00 AM 0.000 0.000 0.000 0.000 0.000 Not Reported Not Reported
07/12/2019 01:32 PM 85.10 64.22 50.72 87.08 54.86 30.0 Not Reported 2.46 SE 3.58 SE 9.62 E No 0.000 No Precipitation 01/01/1970 12:00 AM 01/01/1970 12:00 AM 0.000 0.000 0.000 0.000 0.000 Not Reported Not Reported
07/12/2019 01:37 PM 83.66 63.50 50.18 87.08 54.86 31.0 Not Reported 7.38 E 6.04 E 9.62 E No 0.000 No Precipitation 01/01/1970 12:00 AM 01/01/1970 12:00 AM 0.000 0.000 0.000 0.000 0.000 Not Reported Not Reported
07/12/2019 01:42 PM 83.84 63.86 50.72 87.08 54.86 31.0 Not Reported 12.08 SE 12.08 SE 10.51 SE No 0.000 No Precipitation 01/01/1970 12:00 AM 01/01/1970 12:00 AM 0.000 0.000 0.000 0.000 0.000 Not Reported Not Reported
07/12/2019 01:47 PM 83.66 63.32 49.82 87.08 54.86 30.0 Not Reported 8.05 SE 5.82 E 10.51 SE No 0.000 No Precipitation 01/01/1970 12:00 AM 01/01/1970 12:00 AM 0.000 0.000 0.000 0.000 0.000 Not Reported Not Reported
07/12/2019 01:52 PM 84.20 64.04 51.26 87.08 54.86 32.0 Not Reported 6.93 SE 7.38 S 13.87 E No 0.000 No Precipitation 01/01/1970 12:00 AM 01/01/1970 12:00 AM 0.000 0.000 0.000 0.000 0.000 Not Reported Not Reported
07/12/2019 01:57 PM 84.56 64.22 51.44 87.08 54.86 31.0 Not Reported 7.61 SE 11.41 E 13.87 E No 0.000 No Precipitation 01/01/1970 12:00 AM 01/01/1970 12:00 AM 0.000 0.000 0.000 0.000 0.000 Not Reported Not Reported
07/12/2019 02:02 PM 83.84 63.68 50.54 87.08 54.86 31.0 Not Reported 10.96 E 10.51 E 11.41 E No 0.000 No Precipitation 01/01/1970 12:00 AM 01/01/1970 12:00 AM 0.000 0.000 0.000 0.000 0.000 Not Reported Not Reported
07/12/2019 02:07 PM 84.56 63.86 50.54 87.08 54.86 30.0 Not Reported 7.38 E 9.84 S 11.41 E No 0.000 No Precipitation 01/01/1970 12:00 AM 01/01/1970 12:00 AM 0.000 0.000 0.000 0.000 0.000 Not Reported Not Reported
07/12/2019 02:12 PM 86.00 64.58 50.90 87.08 54.86 29.0 Not Reported 8.05 E 6.49 E 12.30 E No 0.000 No Precipitation 01/01/1970 12:00 AM 01/01/1970 12:00 AM 0.000 0.000 0.000 0.000 0.000 Not Reported Not Reported
07/12/2019 02:17 PM 85.28 64.04 50.00 87.08 54.86 29.0 Not Reported 10.07 E 5.82 E 12.30 E No 0.000 No Precipitation 01/01/1970 12:00 AM 01/01/1970 12:00 AM 0.000 0.000 0.000 0.000 0.000 Not Reported Not Reported
07/12/2019 02:22 PM 85.46 64.22 50.54 87.08 54.86 30.0 Not Reported 4.92 SE 3.13 SW 13.20 E No 0.000 No Precipitation 01/01/1970 12:00 AM 01/01/1970 12:00 AM 0.000 0.000 0.000 0.000 0.000 Not Reported Not Reported
07/12/2019 02:27 PM 86.18 64.58 50.54 87.08 54.86 29.0 Not Reported 4.92 E 5.59 SE 13.20 E No 0.000 No Precipitation 01/01/1970 12:00 AM 01/01/1970 12:00 AM 0.000 0.000 0.000 0.000 0.000 Not Reported Not Reported
07/12/2019 02:32 PM 85.82 64.76 51.26 87.08 54.86 30.0 Not Reported 4.03 SE 1.57 SE 8.95 E No 0.000 No Precipitation 01/01/1970 12:00 AM 01/01/1970 12:00 AM 0.000 0.000 0.000 0.000 0.000 Not Reported Not Reported
07/12/2019 02:37 PM 87.62 65.30 51.08 87.62 54.86 28.0 Not Reported 3.80 SE 2.68 E 8.95 E No 0.000 No Precipitation 01/01/1970 12:00 AM 01/01/1970 12:00 AM 0.000 0.000 0.000 0.000 0.000 Not Reported Not Reported
07/12/2019 02:42 PM 87.44 64.76 50.18 87.62 54.86 27.0 Not Reported 4.70 SE 6.26 SE 10.07 SE No 0.000 No Precipitation 01/01/1970 12:00 AM 01/01/1970 12:00 AM 0.000 0.000 0.000 0.000 0.000 Not Reported Not Reported
07/12/2019 02:47 PM 87.80 65.12 50.72 87.80 54.86 27.0 Not Reported 5.59 SE 5.14 E 10.07 SE No 0.000 No Precipitation 01/01/1970 12:00 AM 01/01/1970 12:00 AM 0.000 0.000 0.000 0.000 0.000 Not Reported Not Reported
07/12/2019 02:52 PM 87.26 64.58 49.82 88.52 54.86 27.0 Not Reported 6.26 E 7.38 E 9.84 SE No 0.000 No Precipitation 01/01/1970 12:00 AM 01/01/1970 12:00 AM 0.000 0.000 0.000 0.000 0.000 Not Reported Not Reported
07/12/2019 02:57 PM 86.54 64.22 49.64 88.52 54.86 28.0 Not Reported 6.71 SE 10.29 E 9.84 SE No 0.000 No Precipitation 01/01/1970 12:00 AM 01/01/1970 12:00 AM 0.000 0.000 0.000 0.000 0.000 Not Reported Not Reported
07/12/2019 03:02 PM 87.62 64.58 49.46 88.52 54.86 26.0 Not Reported 4.92 E 7.16 E 10.29 E No 0.000 No Precipitation 01/01/1970 12:00 AM 01/01/1970 12:00 AM 0.000 0.000 0.000 0.000 0.000 Not Reported Not Reported
07/12/2019 03:08 PM 86.36 64.22 50.18 88.52 54.86 28.0 Not Reported 8.28 E 13.87 E 10.29 E No 0.000 No Precipitation 01/01/1970 12:00 AM 01/01/1970 12:00 AM 0.000 0.000 0.000 0.000 0.000 Not Reported Not Reported
07/12/2019 03:12 PM 86.18 64.22 49.82 88.52 54.86 28.0 Not Reported 8.95 E 10.51 E 13.87 E No 0.000 No Precipitation 01/01/1970 12:00 AM 01/01/1970 12:00 AM 0.000 0.000 0.000 0.000 0.000 Not Reported Not Reported
07/12/2019 03:17 PM 87.08 64.40 49.46 88.52 54.86 27.0 Not Reported 4.70 SE 11.18 E 13.87 E No 0.000 No Precipitation 01/01/1970 12:00 AM 01/01/1970 12:00 AM 0.000 0.000 0.000 0.000 0.000 Not Reported Not Reported
07/12/2019 03:22 PM 86.54 63.86 48.74 88.52 54.86 27.0 Not Reported 11.41 E 12.08 E 11.18 E No 0.000 No Precipitation 01/01/1970 12:00 AM 01/01/1970 12:00 AM 0.000 0.000 0.000 0.000 0.000 Not Reported Not Reported
07/12/2019 03:27 PM 86.72 63.86 48.74 88.52 54.86 26.0 Not Reported 9.62 SE 4.03 E 11.18 E No 0.000 No Precipitation 01/01/1970 12:00 AM 01/01/1970 12:00 AM 0.000 0.000 0.000 0.000 0.000 Not Reported Not Reported
07/12/2019 03:32 PM 86.18 63.86 49.10 88.52 54.86 27.0 Not Reported 5.82 E 3.80 E 15.21 E No 0.000 No Precipitation 01/01/1970 12:00 AM 01/01/1970 12:00 AM 0.000 0.000 0.000 0.000 0.000 Not Reported Not Reported
07/12/2019 03:37 PM 87.26 64.22 48.92 88.52 54.86 26.0 Not Reported 8.95 E 9.62 SE 15.21 E No 0.000 No Precipitation 01/01/1970 12:00 AM 01/01/1970 12:00 AM 0.000 0.000 0.000 0.000 0.000 Not Reported Not Reported
07/12/2019 03:42 PM 87.80 64.76 49.82 88.52 54.86 27.0 Not Reported 7.61 SE 6.04 SE 12.97 E No 0.000 No Precipitation 01/01/1970 12:00 AM 01/01/1970 12:00 AM 0.000 0.000 0.000 0.000 0.000 Not Reported Not Reported
07/12/2019 03:47 PM 87.08 64.22 49.28 88.52 54.86 27.0 Not Reported 10.07 E 6.04 SE 12.97 E No 0.000 No Precipitation 01/01/1970 12:00 AM 01/01/1970 12:00 AM 0.000 0.000 0.000 0.000 0.000 Not Reported Not Reported
07/12/2019 03:52 PM 87.44 64.22 48.74 88.52 54.86 26.0 Not Reported 6.49 SE 6.71 SE 14.09 E No 0.000 No Precipitation 01/01/1970 12:00 AM 01/01/1970 12:00 AM 0.000 0.000 0.000 0.000 0.000 Not Reported Not Reported
07/12/2019 03:58 PM 87.26 64.76 49.46 88.52 54.86 27.0 Not Reported 10.51 E 8.28 E 14.09 E No 0.000 No Precipitation 01/01/1970 12:00 AM 01/01/1970 12:00 AM 0.000 0.000 0.000 0.000 0.000 Not Reported Not Reported
07/12/2019 04:02 PM 88.52 65.12 50.00 88.70 54.86 26.0 Not Reported 6.26 SE 1.79 SE 13.20 E No 0.000 No Precipitation 01/01/1970 12:00 AM 01/01/1970 12:00 AM 0.000 0.000 0.000 0.000 0.000 Not Reported Not Reported
07/12/2019 04:07 PM 89.78 65.30 49.64 89.78 54.86 25.0 Not Reported 3.13 SE 3.36 E 13.20 E No 0.000 No Precipitation 01/01/1970 12:00 AM 01/01/1970 12:00 AM 0.000 0.000 0.000 0.000 0.000 Not Reported Not Reported
07/12/2019 04:12 PM 89.96 64.94 48.56 90.32 54.86 24.0 Not Reported 5.37 E 2.46 E 11.63 E No 0.000 No Precipitation 01/01/1970 12:00 AM 01/01/1970 12:00 AM 0.000 0.000 0.000 0.000 0.000 Not Reported Not Reported
07/12/2019 04:17 PM 91.04 65.48 48.92 91.04 54.86 23.0 Not Reported 4.03 SE 2.68 S 11.63 E No 0.000 No Precipitation 01/01/1970 12:00 AM 01/01/1970 12:00 AM 0.000 0.000 0.000 0.000 0.000 Not Reported Not Reported
07/12/2019 04:22 PM 89.42 65.12 49.64 91.04 54.86 25.0 Not Reported 5.14 SE 3.36 SE 8.95 E No 0.000 No Precipitation 01/01/1970 12:00 AM 01/01/1970 12:00 AM 0.000 0.000 0.000 0.000 0.000 Not Reported Not Reported
07/12/2019 04:27 PM 88.52 64.58 48.56 91.04 54.86 25.0 Not Reported 8.05 SE 6.71 SE 8.95 E No 0.000 No Precipitation 01/01/1970 12:00 AM 01/01/1970 12:00 AM 0.000 0.000 0.000 0.000 0.000 Not Reported Not Reported
07/12/2019 04:32 PM 88.52 64.94 49.64 91.04 54.86 26.0 Not Reported 5.37 SE 7.83 E 10.07 SE No 0.000 No Precipitation 01/01/1970 12:00 AM 01/01/1970 12:00 AM 0.000 0.000 0.000 0.000 0.000 Not Reported Not Reported
07/12/2019 04:37 PM 88.16 64.76 49.64 91.04 54.86 26.0 Not Reported 8.50 E 9.17 SE 10.07 SE No 0.000 No Precipitation 01/01/1970 12:00 AM 01/01/1970 12:00 AM 0.000 0.000 0.000 0.000 0.000 Not Reported Not Reported
07/12/2019 04:42 PM 88.16 64.58 49.28 91.04 54.86 26.0 Not Reported 6.26 SE 6.71 SE 14.32 E No 0.000 No Precipitation 01/01/1970 12:00 AM 01/01/1970 12:00 AM 0.000 0.000 0.000 0.000 0.000 Not Reported Not Reported
07/12/2019 04:47 PM 88.52 65.30 50.54 91.04 54.86 27.0 Not Reported 6.71 E 5.14 SE 14.32 E No 0.000 No Precipitation 01/01/1970 12:00 AM 01/01/1970 12:00 AM 0.000 0.000 0.000 0.000 0.000 Not Reported Not Reported
07/12/2019 04:53 PM 89.42 65.66 50.54 91.04 54.86 26.0 Not Reported 5.82 SE 2.68 SE 10.74 SE No 0.000 No Precipitation 01/01/1970 12:00 AM 01/01/1970 12:00 AM 0.000 0.000 0.000 0.000 0.000 Not Reported Not Reported
07/12/2019 04:57 PM 87.62 64.94 50.72 91.04 54.86 28.0 Not Reported 6.49 SE 3.80 NE 10.74 SE No 0.000 No Precipitation 01/01/1970 12:00 AM 01/01/1970 12:00 AM 0.000 0.000 0.000 0.000 0.000 Not Reported Not Reported
07/12/2019 05:02 PM 87.80 64.40 49.10 91.04 54.86 26.0 Not Reported 6.93 SE 8.72 E 12.75 E No 0.000 No Precipitation 01/01/1970 12:00 AM 01/01/1970 12:00 AM 0.000 0.000 0.000 0.000 0.000 Not Reported Not Reported
07/12/2019 05:07 PM 86.90 64.40 49.82 91.04 54.86 27.0 Not Reported 7.83 SE 13.20 E 12.75 E No 0.000 No Precipitation 01/01/1970 12:00 AM 01/01/1970 12:00 AM 0.000 0.000 0.000 0.000 0.000 Not Reported Not Reported
07/12/2019 05:12 PM 88.16 65.12 50.18 91.04 54.86 27.0 Not Reported 7.16 SE 10.51 SE 15.43 SE No 0.000 No Precipitation 01/01/1970 12:00 AM 01/01/1970 12:00 AM 0.000 0.000 0.000 0.000 0.000 Not Reported Not Reported
07/12/2019 05:17 PM 89.42 65.30 49.82 91.04 54.86 25.0 Not Reported 6.04 SE 8.05 SE 15.43 SE No 0.000 No Precipitation 01/01/1970 12:00 AM 01/01/1970 12:00 AM 0.000 0.000 0.000 0.000 0.000 Not Reported Not Reported
07/12/2019 05:23 PM 87.80 65.12 50.36 91.04 54.86 27.0 Not Reported 9.17 SE 9.84 SE 10.74 SE No 0.000 No Precipitation 01/01/1970 12:00 AM 01/01/1970 12:00 AM 0.000 0.000 0.000 0.000 0.000 Not Reported Not Reported
07/12/2019 05:27 PM 87.44 64.94 50.36 91.04 54.86 27.0 Not Reported 7.83 SE 6.93 SE 10.74 SE No 0.000 No Precipitation 01/01/1970 12:00 AM 01/01/1970 12:00 AM 0.000 0.000 0.000 0.000 0.000 Not Reported Not Reported
07/12/2019 05:32 PM 88.16 65.30 50.72 91.04 54.86 27.0 Not Reported 8.05 SE 6.71 SE 12.53 E No 0.000 No Precipitation 01/01/1970 12:00 AM 01/01/1970 12:00 AM 0.000 0.000 0.000 0.000 0.000 Not Reported Not Reported
07/12/2019 05:37 PM 86.90 64.76 50.72 91.04 54.86 28.0 Not Reported 8.05 E 5.82 SE 12.53 E No 0.000 No Precipitation 01/01/1970 12:00 AM 01/01/1970 12:00 AM 0.000 0.000 0.000 0.000 0.000 Not Reported Not Reported
07/12/2019 05:42 PM 87.26 64.94 50.54 91.04 54.86 28.0 Not Reported 8.50 SE 10.51 SE 12.08 SE No 0.000 No Precipitation 01/01/1970 12:00 AM 01/01/1970 12:00 AM 0.000 0.000 0.000 0.000 0.000 Not Reported Not Reported
07/12/2019 05:47 PM 87.98 65.30 51.08 91.04 54.86 28.0 Not Reported 7.61 E 9.17 E 12.08 SE No 0.000 No Precipitation 01/01/1970 12:00 AM 01/01/1970 12:00 AM 0.000 0.000 0.000 0.000 0.000 Not Reported Not Reported
07/12/2019 05:52 PM 88.34 65.48 50.90 91.04 54.86 27.0 Not Reported 5.59 SE 9.84 E 11.86 E No 0.000 No Precipitation 01/01/1970 12:00 AM 01/01/1970 12:00 AM 0.000 0.000 0.000 0.000 0.000 Not Reported Not Reported
07/12/2019 05:57 PM 87.98 65.30 50.90 91.04 54.86 28.0 Not Reported 6.49 SE 10.51 SE 11.86 E No 0.000 No Precipitation 01/01/1970 12:00 AM 01/01/1970 12:00 AM 0.000 0.000 0.000 0.000 0.000 Not Reported Not Reported
07/12/2019 06:02 PM 88.52 65.48 50.90 91.04 54.86 27.0 Not Reported 3.80 SE 5.82 SE 10.51 SE No 0.000 No Precipitation 01/01/1970 12:00 AM 01/01/1970 12:00 AM 0.000 0.000 0.000 0.000 0.000 Not Reported Not Reported
07/12/2019 06:07 PM 88.70 65.48 50.72 91.04 54.86 27.0 Not Reported 3.13 SE 2.68 SE 10.51 SE No 0.000 No Precipitation 01/01/1970 12:00 AM 01/01/1970 12:00 AM 0.000 0.000 0.000 0.000 0.000 Not Reported Not Reported
07/12/2019 06:12 PM 87.98 65.30 50.72 91.04 54.86 27.0 Not Reported 5.82 SE 8.50 SE 6.71 SE No 0.000 No Precipitation 01/01/1970 12:00 AM 01/01/1970 12:00 AM 0.000 0.000 0.000 0.000 0.000 Not Reported Not Reported
07/12/2019 06:17 PM 88.34 65.30 50.72 91.04 54.86 27.0 Not Reported 8.95 SE 4.47 E 6.71 SE No 0.000 No Precipitation 01/01/1970 12:00 AM 01/01/1970 12:00 AM 0.000 0.000 0.000 0.000 0.000 Not Reported Not Reported
07/12/2019 06:22 PM 87.26 64.94 50.54 91.04 54.86 28.0 Not Reported 4.92 SE 4.25 SE 12.97 E No 0.000 No Precipitation 01/01/1970 12:00 AM 01/01/1970 12:00 AM 0.000 0.000 0.000 0.000 0.000 Not Reported Not Reported
07/12/2019 06:27 PM 87.26 64.94 50.72 91.04 54.86 28.0 Not Reported 4.92 SE 6.04 E 12.97 E No 0.000 No Precipitation 01/01/1970 12:00 AM 01/01/1970 12:00 AM 0.000 0.000 0.000 0.000 0.000 Not Reported Not Reported
07/12/2019 06:32 PM 88.70 65.48 50.72 91.04 54.86 27.0 Not Reported 2.24 E 4.25 E 8.95 SE No 0.000 No Precipitation 01/01/1970 12:00 AM 01/01/1970 12:00 AM 0.000 0.000 0.000 0.000 0.000 Not Reported Not Reported
07/12/2019 06:37 PM 86.36 64.58 50.54 91.04 54.86 29.0 Not Reported 1.34 S 2.91 SE 8.95 SE No 0.000 No Precipitation 01/01/1970 12:00 AM 01/01/1970 12:00 AM 0.000 0.000 0.000 0.000 0.000 Not Reported Not Reported
07/12/2019 06:42 PM 85.46 64.22 50.18 91.04 54.86 29.0 Not Reported 2.01 SE 2.24 S 8.05 SE No 0.000 No Precipitation 01/01/1970 12:00 AM 01/01/1970 12:00 AM 0.000 0.000 0.000 0.000 0.000 Not Reported Not Reported
07/12/2019 06:47 PM 86.00 64.40 50.36 91.04 54.86 29.0 Not Reported 3.36 SE 4.92 E 8.05 SE No 0.000 No Precipitation 01/01/1970 12:00 AM 01/01/1970 12:00 AM 0.000 0.000 0.000 0.000 0.000 Not Reported Not Reported
07/12/2019 06:52 PM 84.92 63.86 50.18 91.04 54.86 30.0 Not Reported 3.36 SE 3.13 E 5.37 E No 0.000 No Precipitation 01/01/1970 12:00 AM 01/01/1970 12:00 AM 0.000 0.000 0.000 0.000 0.000 Not Reported Not Reported
07/12/2019 06:57 PM 85.10 63.86 50.00 91.04 54.86 29.0 Not Reported 4.47 SE 1.57 E 5.37 E No 0.000 No Precipitation 01/01/1970 12:00 AM 01/01/1970 12:00 AM 0.000 0.000 0.000 0.000 0.000 Not Reported Not Reported
07/12/2019 07:02 PM 86.90 64.58 50.00 91.04 54.86 28.0 Not Reported 3.13 E 1.79 SE 6.71 E No 0.000 No Precipitation 01/01/1970 12:00 AM 01/01/1970 12:00 AM 0.000 0.000 0.000 0.000 0.000 Not Reported Not Reported
07/12/2019 07:07 PM 87.26 64.40 49.64 91.04 54.86 27.0 Not Reported 4.47 SE 8.72 SE 6.71 E No 0.000 No Precipitation 01/01/1970 12:00 AM 01/01/1970 12:00 AM 0.000 0.000 0.000 0.000 0.000 Not Reported Not Reported
07/12/2019 07:12 PM 86.36 64.40 50.18 91.04 54.86 28.0 Not Reported 3.13 SE 1.34 E 8.72 SE No 0.000 No Precipitation 01/01/1970 12:00 AM 01/01/1970 12:00 AM 0.000 0.000 0.000 0.000 0.000 Not Reported Not Reported
07/12/2019 07:17 PM 85.10 63.86 50.00 91.04 54.86 29.0 Not Reported 5.14 SE 7.16 E 8.72 SE No 0.000 No Precipitation 01/01/1970 12:00 AM 01/01/1970 12:00 AM 0.000 0.000 0.000 0.000 0.000 Not Reported Not Reported
07/12/2019 07:22 PM 87.26 64.76 50.18 91.04 54.86 27.0 Not Reported 3.13 SE 3.80 SE 7.16 E No 0.000 No Precipitation 01/01/1970 12:00 AM 01/01/1970 12:00 AM 0.000 0.000 0.000 0.000 0.000 Not Reported Not Reported
07/12/2019 07:27 PM 86.00 64.40 50.18 91.04 54.86 29.0 Not Reported 2.68 E 4.92 S 7.16 E No 0.000 No Precipitation 01/01/1970 12:00 AM 01/01/1970 12:00 AM 0.000 0.000 0.000 0.000 0.000 Not Reported Not Reported
07/12/2019 07:32 PM 85.82 64.04 49.82 91.04 54.86 28.0 Not Reported 2.91 E 3.80 S 7.83 E No 0.000 No Precipitation 01/01/1970 12:00 AM 01/01/1970 12:00 AM 0.000 0.000 0.000 0.000 0.000 Not Reported Not Reported
07/12/2019 07:37 PM 87.08 64.58 49.82 91.04 54.86 27.0 Not Reported 4.70 SE 2.46 SE 7.83 E No 0.000 No Precipitation 01/01/1970 12:00 AM 01/01/1970 12:00 AM 0.000 0.000 0.000 0.000 0.000 Not Reported Not Reported
07/12/2019 07:42 PM 84.38 63.86 50.36 91.04 54.86 30.0 Not Reported 3.36 SE 2.01 E 8.28 SE No 0.000 No Precipitation 01/01/1970 12:00 AM 01/01/1970 12:00 AM 0.000 0.000 0.000 0.000 0.000 Not Reported Not Reported
07/12/2019 07:47 PM 84.02 63.68 50.54 91.04 54.86 31.0 Not Reported 2.46 SE 0.00 E 8.28 SE No 0.000 No Precipitation 01/01/1970 12:00 AM 01/01/1970 12:00 AM 0.000 0.000 0.000 0.000 0.000 Not Reported Not Reported
07/12/2019 07:52 PM 83.66 63.14 49.46 91.04 54.86 30.0 Not Reported 4.03 E 4.25 E 6.49 SE No 0.000 No Precipitation 01/01/1970 12:00 AM 01/01/1970 12:00 AM 0.000 0.000 0.000 0.000 0.000 Not Reported Not Reported
07/12/2019 07:57 PM 83.30 63.50 50.36 91.04 54.86 31.0 Not Reported 2.46 SE 4.47 E 6.49 SE No 0.000 No Precipitation 01/01/1970 12:00 AM 01/01/1970 12:00 AM 0.000 0.000 0.000 0.000 0.000 Not Reported Not Reported
07/12/2019 08:02 PM 82.94 63.32 50.36 91.04 54.86 32.0 Not Reported 3.80 E 4.03 SE 5.14 SE No 0.000 No Precipitation 01/01/1970 12:00 AM 01/01/1970 12:00 AM 0.000 0.000 0.000 0.000 0.000 Not Reported Not Reported
07/12/2019 08:07 PM 82.58 63.32 50.72 91.04 54.86 33.0 Not Reported 2.91 SE 1.79 E 5.14 SE No 0.000 No Precipitation 01/01/1970 12:00 AM 01/01/1970 12:00 AM 0.000 0.000 0.000 0.000 0.000 Not Reported Not Reported
07/12/2019 08:12 PM 82.22 63.14 50.54 91.04 54.86 33.0 Not Reported 2.91 SE 3.80 E 5.14 E No 0.000 No Precipitation 01/01/1970 12:00 AM 01/01/1970 12:00 AM 0.000 0.000 0.000 0.000 0.000 Not Reported Not Reported
07/12/2019 08:17 PM 82.04 62.96 50.36 91.04 54.86 33.0 Not Reported 1.12 NE 3.13 E 5.14 E No 0.000 No Precipitation 01/01/1970 12:00 AM 01/01/1970 12:00 AM 0.000 0.000 0.000 0.000 0.000 Not Reported Not Reported
07/12/2019 08:22 PM 81.32 62.78 50.72 91.04 54.86 34.0 Not Reported 1.57 E 2.68 E 5.37 SE No 0.000 No Precipitation 01/01/1970 12:00 AM 01/01/1970 12:00 AM 0.000 0.000 0.000 0.000 0.000 Not Reported Not Reported
07/12/2019 08:27 PM 81.32 63.14 51.08 91.04 54.86 34.0 Not Reported 1.57 NE 0.22 NW 5.37 SE No 0.000 No Precipitation 01/01/1970 12:00 AM 01/01/1970 12:00 AM 0.000 0.000 0.000 0.000 0.000 Not Reported Not Reported
07/12/2019 08:32 PM 81.14 62.78 50.72 91.04 54.86 34.0 Not Reported 1.57 E 2.01 E 2.91 SE No 0.000 No Precipitation 01/01/1970 12:00 AM 01/01/1970 12:00 AM 0.000 0.000 0.000 0.000 0.000 Not Reported Not Reported
07/12/2019 08:37 PM 80.78 62.42 50.18 91.04 54.86 34.0 Not Reported 2.91 NE 2.01 N 2.91 SE No 0.000 No Precipitation 01/01/1970 12:00 AM 01/01/1970 12:00 AM 0.000 0.000 0.000 0.000 0.000 Not Reported Not Reported
07/12/2019 08:42 PM 80.78 62.60 50.54 91.04 54.86 34.0 Not Reported 0.67 N 0.00 NW 3.13 E No 0.000 No Precipitation 01/01/1970 12:00 AM 01/01/1970 12:00 AM 0.000 0.000 0.000 0.000 0.000 Not Reported Not Reported
07/12/2019 08:47 PM 80.60 62.06 49.46 91.04 54.86 33.0 Not Reported 3.13 NE 2.68 SE 3.13 E No 0.000 No Precipitation 01/01/1970 12:00 AM 01/01/1970 12:00 AM 0.000 0.000 0.000 0.000 0.000 Not Reported Not Reported
07/12/2019 08:52 PM 80.24 61.70 48.74 91.04 54.86 33.0 Not Reported 0.89 NE 0.89 E 4.70 E No 0.000 No Precipitation 01/01/1970 12:00 AM 01/01/1970 12:00 AM 0.000 0.000 0.000 0.000 0.000 Not Reported Not Reported
07/12/2019 08:57 PM 80.24 61.34 47.84 91.04 54.86 32.0 Not Reported 1.34 NE 1.79 N 4.70 E No 0.000 No Precipitation 01/01/1970 12:00 AM 01/01/1970 12:00 AM 0.000 0.000 0.000 0.000 0.000 Not Reported Not Reported
07/12/2019 09:02 PM 80.42 60.98 46.94 91.04 54.86 30.0 Not Reported 1.12 N 1.79 N 2.68 NW No 0.000 No Precipitation 01/01/1970 12:00 AM 01/01/1970 12:00 AM 0.000 0.000 0.000 0.000 0.000 Not Reported Not Reported
07/12/2019 09:07 PM 80.06 60.98 47.48 91.04 54.86 31.0 Not Reported 0.89 N 2.01 W 2.68 NW No 0.000 No Precipitation 01/01/1970 12:00 AM 01/01/1970 12:00 AM 0.000 0.000 0.000 0.000 0.000 Not Reported Not Reported
07/12/2019 09:12 PM 80.24 59.72 43.52 91.04 54.86 27.0 Not Reported 2.91 N 2.24 NW 4.47 N No 0.000 No Precipitation 01/01/1970 12:00 AM 01/01/1970 12:00 AM 0.000 0.000 0.000 0.000 0.000 Not Reported Not Reported
07/12/2019 09:17 PM 79.88 60.62 46.40 91.04 54.86 30.0 Not Reported 1.34 NW 1.34 N 4.47 N No 0.000 No Precipitation 01/01/1970 12:00 AM 01/01/1970 12:00 AM 0.000 0.000 0.000 0.000 0.000 Not Reported Not Reported
07/12/2019 09:22 PM 79.34 59.18 43.16 91.04 54.86 27.0 Not Reported 10.29 NW 11.63 NW 9.62 SW No 0.000 No Precipitation 01/01/1970 12:00 AM 01/01/1970 12:00 AM 0.000 0.000 0.000 0.000 0.000 Not Reported Not Reported
07/12/2019 09:27 PM 79.70 59.00 42.80 91.04 54.86 27.0 Not Reported 6.93 NW 8.72 NW 9.62 SW No 0.000 No Precipitation 01/01/1970 12:00 AM 01/01/1970 12:00 AM 0.000 0.000 0.000 0.000 0.000 Not Reported Not Reported
07/12/2019 09:32 PM 79.52 59.00 42.80 91.04 54.86 27.0 Not Reported 7.38 NW 6.71 NW 11.63 NW No 0.000 No Precipitation 01/01/1970 12:00 AM 01/01/1970 12:00 AM 0.000 0.000 0.000 0.000 0.000 Not Reported Not Reported
07/12/2019 09:37 PM 79.34 59.00 42.80 91.04 54.86 27.0 Not Reported 8.28 NW 9.62 NW 11.63 NW No 0.000 No Precipitation 01/01/1970 12:00 AM 01/01/1970 12:00 AM 0.000 0.000 0.000 0.000 0.000 Not Reported Not Reported
07/12/2019 09:42 PM 78.98 59.18 43.52 91.04 54.86 28.0 Not Reported 7.38 NW 5.37 N 10.07 NW No 0.000 No Precipitation 01/01/1970 12:00 AM 01/01/1970 12:00 AM 0.000 0.000 0.000 0.000 0.000 Not Reported Not Reported
07/12/2019 09:47 PM 78.26 59.18 44.42 91.04 54.86 30.0 Not Reported 5.59 NW 5.14 NW 10.07 NW No 0.000 No Precipitation 01/01/1970 12:00 AM 01/01/1970 12:00 AM 0.000 0.000 0.000 0.000 0.000 Not Reported Not Reported
07/12/2019 09:52 PM 77.18 59.00 44.96 91.04 54.86 31.0 Not Reported 2.91 NW 2.91 N 9.17 NW No 0.000 No Precipitation 01/01/1970 12:00 AM 01/01/1970 12:00 AM 0.000 0.000 0.000 0.000 0.000 Not Reported Not Reported
07/12/2019 09:57 PM 76.64 59.36 46.40 91.04 54.86 34.0 Not Reported 4.70 NW 2.91 NW 9.17 NW No 0.000 No Precipitation 01/01/1970 12:00 AM 01/01/1970 12:00 AM 0.000 0.000 0.000 0.000 0.000 Not Reported Not Reported
07/12/2019 10:02 PM 75.74 59.36 47.48 91.04 54.86 36.0 Not Reported 4.25 NW 4.25 NW 5.82 NW No 0.000 No Precipitation 01/01/1970 12:00 AM 01/01/1970 12:00 AM 0.000 0.000 0.000 0.000 0.000 Not Reported Not Reported
07/12/2019 10:07 PM 75.20 59.36 48.02 91.04 54.86 38.0 Not Reported 4.25 NW 4.92 W 5.82 NW No 0.000 No Precipitation 01/01/1970 12:00 AM 01/01/1970 12:00 AM 0.000 0.000 0.000 0.000 0.000 Not Reported Not Reported
07/12/2019 10:12 PM 74.66 59.36 48.38 91.04 54.86 39.0 Not Reported 3.80 NW 5.14 W 5.14 NW No 0.000 No Precipitation 01/01/1970 12:00 AM 01/01/1970 12:00 AM 0.000 0.000 0.000 0.000 0.000 Not Reported Not Reported
07/12/2019 10:17 PM 74.66 59.54 48.74 91.04 54.86 40.0 Not Reported 5.14 NW 4.70 NW 5.14 NW No 0.000 No Precipitation 01/01/1970 12:00 AM 01/01/1970 12:00 AM 0.000 0.000 0.000 0.000 0.000 Not Reported Not Reported
07/12/2019 10:22 PM 73.76 59.54 49.28 91.04 54.86 42.0 Not Reported 5.37 NW 4.25 NW 6.49 NW No 0.000 No Precipitation 01/01/1970 12:00 AM 01/01/1970 12:00 AM 0.000 0.000 0.000 0.000 0.000 Not Reported Not Reported
07/12/2019 10:27 PM 73.94 59.72 49.64 91.04 54.86 42.0 Not Reported 6.26 NW 7.16 NW 6.49 NW No 0.000 No Precipitation 01/01/1970 12:00 AM 01/01/1970 12:00 AM 0.000 0.000 0.000 0.000 0.000 Not Reported Not Reported
07/12/2019 10:32 PM 74.48 59.90 49.82 91.04 54.86 41.0 Not Reported 8.28 NW 8.72 N 10.29 N No 0.000 No Precipitation 01/01/1970 12:00 AM 01/01/1970 12:00 AM 0.000 0.000 0.000 0.000 0.000 Not Reported Not Reported
07/12/2019 10:37 PM 74.12 59.90 49.82 91.04 54.86 42.0 Not Reported 8.28 NW 9.62 N 10.29 N No 0.000 No Precipitation 01/01/1970 12:00 AM 01/01/1970 12:00 AM 0.000 0.000 0.000 0.000 0.000 Not Reported Not Reported
07/12/2019 10:42 PM 73.76 59.72 49.82 91.04 54.86 42.0 Not Reported 8.72 NW 6.71 NW 10.07 W No 0.000 No Precipitation 01/01/1970 12:00 AM 01/01/1970 12:00 AM 0.000 0.000 0.000 0.000 0.000 Not Reported Not Reported
07/12/2019 10:47 PM 73.58 59.54 49.64 91.04 54.86 42.0 Not Reported 9.17 NW 9.84 NW 10.07 W No 0.000 No Precipitation 01/01/1970 12:00 AM 01/01/1970 12:00 AM 0.000 0.000 0.000 0.000 0.000 Not Reported Not Reported
07/12/2019 10:52 PM 73.40 59.54 49.64 91.04 54.86 43.0 Not Reported 10.07 NW 9.62 NW 11.18 N No 0.000 No Precipitation 01/01/1970 12:00 AM 01/01/1970 12:00 AM 0.000 0.000 0.000 0.000 0.000 Not Reported Not Reported
07/12/2019 10:57 PM 73.04 59.36 49.46 91.04 54.86 43.0 Not Reported 8.95 NW 8.72 NW 11.18 N No 0.000 No Precipitation 01/01/1970 12:00 AM 01/01/1970 12:00 AM 0.000 0.000 0.000 0.000 0.000 Not Reported Not Reported
07/12/2019 11:02 PM 72.86 59.18 49.46 91.04 54.86 43.0 Not Reported 8.05 NW 8.05 NW 11.86 NW No 0.000 No Precipitation 01/01/1970 12:00 AM 01/01/1970 12:00 AM 0.000 0.000 0.000 0.000 0.000 Not Reported Not Reported
07/12/2019 11:07 PM 72.68 59.18 49.28 91.04 54.86 43.0 Not Reported 9.17 NW 10.29 NW 11.86 NW No 0.000 No Precipitation 01/01/1970 12:00 AM 01/01/1970 12:00 AM 0.000 0.000 0.000 0.000 0.000 Not Reported Not Reported
07/12/2019 11:12 PM 72.68 59.00 49.28 91.04 54.86 43.0 Not Reported 10.96 NW 11.86 NW 11.41 N No 0.000 No Precipitation 01/01/1970 12:00 AM 01/01/1970 12:00 AM 0.000 0.000 0.000 0.000 0.000 Not Reported Not Reported
07/12/2019 11:17 PM 72.32 59.00 49.28 91.04 54.86 44.0 Not Reported 10.51 NW 6.49 NW 11.41 N No 0.000 No Precipitation 01/01/1970 12:00 AM 01/01/1970 12:00 AM 0.000 0.000 0.000 0.000 0.000 Not Reported Not Reported
07/12/2019 11:22 PM 72.14 58.82 49.28 91.04 54.86 44.0 Not Reported 8.28 NW 6.49 N 12.30 NW No 0.000 No Precipitation 01/01/1970 12:00 AM 01/01/1970 12:00 AM 0.000 0.000 0.000 0.000 0.000 Not Reported Not Reported
07/12/2019 11:27 PM 71.96 58.82 49.28 91.04 54.86 44.0 Not Reported 9.17 NW 10.29 NW 12.30 NW No 0.000 No Precipitation 01/01/1970 12:00 AM 01/01/1970 12:00 AM 0.000 0.000 0.000 0.000 0.000 Not Reported Not Reported
07/12/2019 11:32 PM 72.14 58.82 49.28 91.04 54.86 44.0 Not Reported 10.29 NW 9.40 NW 12.53 NW No 0.000 No Precipitation 01/01/1970 12:00 AM 01/01/1970 12:00 AM 0.000 0.000 0.000 0.000 0.000 Not Reported Not Reported
07/12/2019 11:37 PM 71.24 58.64 49.28 91.04 54.86 45.0 Not Reported 8.05 NW 5.82 NW 12.53 NW No 0.000 No Precipitation 01/01/1970 12:00 AM 01/01/1970 12:00 AM 0.000 0.000 0.000 0.000 0.000 Not Reported Not Reported
07/12/2019 11:42 PM 70.34 58.28 49.46 91.04 54.86 47.0 Not Reported 5.14 NW 4.70 NW 14.76 NW No 0.000 No Precipitation 01/01/1970 12:00 AM 01/01/1970 12:00 AM 0.000 0.000 0.000 0.000 0.000 Not Reported Not Reported
07/12/2019 11:47 PM 69.80 58.10 49.64 91.04 54.86 48.0 Not Reported 3.36 W 5.82 W 14.76 NW No 0.000 No Precipitation 01/01/1970 12:00 AM 01/01/1970 12:00 AM 0.000 0.000 0.000 0.000 0.000 Not Reported Not Reported
07/12/2019 11:52 PM 69.98 58.10 49.46 91.04 54.86 48.0 Not Reported 7.38 NW 6.93 NW 7.16 NW No 0.000 No Precipitation 01/01/1970 12:00 AM 01/01/1970 12:00 AM 0.000 0.000 0.000 0.000 0.000 Not Reported Not Reported
07/12/2019 11:57 PM 69.98 58.10 49.64 91.04 54.86 48.0 Not Reported 6.26 NW 7.61 NW 7.16 NW No 0.000 No Precipitation 01/01/1970 12:00 AM 01/01/1970 12:00 AM 0.000 0.000 0.000 0.000 0.000 Not Reported Not Reported